메인 페이지
METAR-TAF:

METAR-TAF

공항 :

Ottumwa Industrial Airport

오텀와, 아이오와, 미국

위도: 41-06-24N, 경도: 092-26-53W, 고도: 258m

현재 날씨관측

예보는 1 시간 36분 전, 10:53시(UTC)에 발표되었습니다.
남서5kt
온도 -2°C
습도 80%
기압 1019 hPa
시정: 16.1km
맑음

METAR: KOTM 281053Z AUTO 22005KT 10SM CLR M02/M05 A3008 RMK AO2 SLP196 T10221050

시각: 07:29 (12:29 UTC)

예보

예보는 1 시간 0분 전, 11:29시(UTC)에 발표되었습니다.
예보 대상 시간: 28일 12시부터 29일 12시까지 (UTC)
여러 방향의 바람 5kt
시정: 10km
맑음
29일 0900시부터 (UTC)
14kt
시정: 10km
고도 15000ft 상공 구름 많음

TAF: KOTM 281129Z 2812/2912 VRB05KT P6SM SKC FM290900 36014KT P6SM BKN150

4,000개 이상의 공항 관측 자료 및 예보 (METAR 및 TAF 보고).

지도상에서 검색 가능한 기상관측소가 노란 점과 빨간 점으로 표시되어 있습니다.

기상관측소 명을 보려면 표시 위로 마우스를 이동하세요.

날씨 관측과 예보를 보려면 클릭하세요.

지도 변경 : 확대하려면 엑스 표시가 있는 녹색 버튼, 축소하려면 빼기 표시가 있는 녹색 버튼, 다음 페이지의 지도를 보려면 녹색 화살표를 클릭하세요.


METAR-TAF: